Highest pressure

Not for real navigation. The accuracy of this data is not assured See disclaimer for more information



ICAO NAME COUNTRY WIND Kt GUST Kt VIS m TEMP/DEW C BARO METAR
SLLP La Paz / Alto Bolivia 2 0 9999 6/5 30.59 SLLP 150800Z VRB02KT 9999 FEW004 FEW017CB SCT070 BKN200 06/05 Q1036
KP69 Lowell ID United States 0 0 9999 0/-2 30.52 KP69 150752Z AUTO 00000KT 00/M02 A3052 RMK AO1 SLP347 T00001017 401561022
NZCH Christchurch New Zealand 4 0 9999 9/7 30.47 NZCH 150800Z AUTO 04004KT 9999 BKN030/// 09/07 Q1032 NOSIG
NZAA Auckland Airport New Zealand 9 0 9999 12/8 30.47 NZAA 150800Z AUTO 19009KT 9999 NCD 12/08 Q1032 BECMG VRB02KT
NZWN Wellington Airport New Zealand 9 0 9999 11/7 30.47 NZWN 150800Z AUTO 15009KT 9999 FEW026/// BKN037/// 11/07 Q1032 BECMG 01010KT

Show more